sensor_id;sensor_type;location;lat;lon;timestamp;P1;durP1;ratioP1;P2;durP2;ratioP2
54745;SDS011;40640;48.130;11.356;2022-09-28T00:00:37;0.80;;;0.43;;
54745;SDS011;40640;48.130;11.356;2022-09-28T00:04:41;0.97;;;0.30;;
54745;SDS011;40640;48.130;11.356;2022-09-28T00:08:44;1.17;;;0.40;;
54745;SDS011;40640;48.130;11.356;2022-09-28T00:12:46;0.30;;;0.22;;
54745;SDS011;40640;48.130;11.356;2022-09-28T00:16:50;2.38;;;0.40;;
54745;SDS011;40640;48.130;11.356;2022-09-28T00:21:00;1.67;;;0.50;;
54745;SDS011;40640;48.130;11.356;2022-09-28T00:25:05;1.55;;;0.60;;
54745;SDS011;40640;48.130;11.356;2022-09-28T00:29:12;4.45;;;0.40;;
54745;SDS011;40640;48.130;11.356;2022-09-28T00:33:19;0.70;;;0.30;;
54745;SDS011;40640;48.130;11.356;2022-09-28T00:37:22;2.00;;;0.40;;
54745;SDS011;40640;48.130;11.356;2022-09-28T00:41:26;1.10;;;0.50;;
54745;SDS011;40640;48.130;11.356;2022-09-28T00:45:29;0.30;;;0.30;;
54745;SDS011;40640;48.130;11.356;2022-09-28T00:49:34;1.45;;;0.17;;
54745;SDS011;40640;48.130;11.356;2022-09-28T00:53:42;1.05;;;0.40;;
54745;SDS011;40640;48.130;11.356;2022-09-28T00:57:46;0.20;;;0.20;;
54745;SDS011;40640;48.130;11.356;2022-09-28T01:01:51;1.15;;;0.60;;
54745;SDS011;40640;48.130;11.356;2022-09-28T01:05:56;2.20;;;0.85;;
54745;SDS011;40640;48.130;11.356;2022-09-28T01:10:03;1.02;;;0.93;;
54745;SDS011;40640;48.130;11.356;2022-09-28T01:14:07;1.08;;;0.43;;
54745;SDS011;40640;48.130;11.356;2022-09-28T01:18:15;0.75;;;0.30;;
54745;SDS011;40640;48.130;11.356;2022-09-28T01:22:27;0.70;;;0.40;;
54745;SDS011;40640;48.130;11.356;2022-09-28T01:26:46;1.40;;;0.55;;
54745;SDS011;40640;48.130;11.356;2022-09-28T01:30:58;2.65;;;0.38;;
54745;SDS011;40640;48.130;11.356;2022-09-28T01:35:09;0.40;;;0.20;;
54745;SDS011;40640;48.130;11.356;2022-09-28T01:39:17;0.40;;;0.30;;
54745;SDS011;40640;48.130;11.356;2022-09-28T01:43:26;0.40;;;0.30;;
54745;SDS011;40640;48.130;11.356;2022-09-28T01:47:32;0.95;;;0.25;;
54745;SDS011;40640;48.130;11.356;2022-09-28T01:51:39;2.45;;;0.55;;
54745;SDS011;40640;48.130;11.356;2022-09-28T01:55:46;0.68;;;0.40;;
54745;SDS011;40640;48.130;11.356;2022-09-28T01:59:54;2.78;;;0.73;;
54745;SDS011;40640;48.130;11.356;2022-09-28T02:04:03;1.02;;;0.50;;
54745;SDS011;40640;48.130;11.356;2022-09-28T02:08:12;3.13;;;0.50;;
54745;SDS011;40640;48.130;11.356;2022-09-28T02:12:25;1.15;;;0.40;;
54745;SDS011;40640;48.130;11.356;2022-09-28T02:16:36;2.13;;;0.63;;
54745;SDS011;40640;48.130;11.356;2022-09-28T02:20:43;1.25;;;0.85;;
54745;SDS011;40640;48.130;11.356;2022-09-28T02:24:54;5.38;;;0.50;;
54745;SDS011;40640;48.130;11.356;2022-09-28T02:29:02;0.50;;;0.40;;
54745;SDS011;40640;48.130;11.356;2022-09-28T02:33:08;3.92;;;0.68;;
54745;SDS011;40640;48.130;11.356;2022-09-28T02:37:14;0.85;;;0.50;;
54745;SDS011;40640;48.130;11.356;2022-09-28T02:41:20;3.63;;;0.60;;
54745;SDS011;40640;48.130;11.356;2022-09-28T02:45:31;2.00;;;0.60;;
54745;SDS011;40640;48.130;11.356;2022-09-28T02:49:45;1.73;;;0.57;;
54745;SDS011;40640;48.130;11.356;2022-09-28T02:53:58;1.30;;;0.45;;
54745;SDS011;40640;48.130;11.356;2022-09-28T02:58:18;3.17;;;0.40;;
54745;SDS011;40640;48.130;11.356;2022-09-28T03:02:29;4.32;;;0.80;;
54745;SDS011;40640;48.130;11.356;2022-09-28T03:06:38;4.18;;;0.75;;
54745;SDS011;40640;48.130;11.356;2022-09-28T03:10:47;1.38;;;0.47;;
54745;SDS011;40640;48.130;11.356;2022-09-28T03:19:21;1.92;;;1.30;;
54745;SDS011;40640;48.130;11.356;2022-09-28T03:27:31;2.05;;;0.70;;
54745;SDS011;40640;48.130;11.356;2022-09-28T03:31:35;2.50;;;0.60;;
54745;SDS011;40640;48.130;11.356;2022-09-28T03:35:38;1.58;;;0.50;;
54745;SDS011;40640;48.130;11.356;2022-09-28T03:39:42;3.60;;;0.85;;
54745;SDS011;40640;48.130;11.356;2022-09-28T03:43:45;3.72;;;1.20;;
54745;SDS011;40640;48.130;11.356;2022-09-28T03:47:48;3.88;;;0.85;;
54745;SDS011;40640;48.130;11.356;2022-09-28T03:51:52;1.75;;;0.68;;
54745;SDS011;40640;48.130;11.356;2022-09-28T03:56:00;5.45;;;0.52;;
54745;SDS011;40640;48.130;11.356;2022-09-28T04:00:05;4.03;;;0.30;;
54745;SDS011;40640;48.130;11.356;2022-09-28T04:04:14;1.70;;;1.02;;
54745;SDS011;40640;48.130;11.356;2022-09-28T04:08:18;7.75;;;0.90;;
54745;SDS011;40640;48.130;11.356;2022-09-28T04:12:23;3.92;;;0.43;;
54745;SDS011;40640;48.130;11.356;2022-09-28T04:16:26;0.45;;;0.30;;
54745;SDS011;40640;48.130;11.356;2022-09-28T04:20:59;2.20;;;0.50;;
54745;SDS011;40640;48.130;11.356;2022-09-28T04:25:10;1.67;;;0.65;;
54745;SDS011;40640;48.130;11.356;2022-09-28T04:29:14;0.52;;;0.40;;
54745;SDS011;40640;48.130;11.356;2022-09-28T04:33:21;1.50;;;0.80;;
54745;SDS011;40640;48.130;11.356;2022-09-28T04:37:25;1.40;;;1.30;;
54745;SDS011;40640;48.130;11.356;2022-09-28T04:41:27;1.02;;;0.30;;
54745;SDS011;40640;48.130;11.356;2022-09-28T04:45:31;2.20;;;0.50;;
54745;SDS011;40640;48.130;11.356;2022-09-28T04:49:41;0.88;;;0.50;;
54745;SDS011;40640;48.130;11.356;2022-09-28T04:53:48;0.82;;;0.55;;
54745;SDS011;40640;48.130;11.356;2022-09-28T04:57:52;3.38;;;0.50;;
54745;SDS011;40640;48.130;11.356;2022-09-28T05:01:56;2.35;;;1.30;;
54745;SDS011;40640;48.130;11.356;2022-09-28T05:06:01;1.17;;;0.90;;
54745;SDS011;40640;48.130;11.356;2022-09-28T05:10:18;2.70;;;0.77;;
54745;SDS011;40640;48.130;11.356;2022-09-28T05:14:21;2.97;;;0.75;;
54745;SDS011;40640;48.130;11.356;2022-09-28T05:18:26;0.85;;;0.50;;
54745;SDS011;40640;48.130;11.356;2022-09-28T05:22:35;1.65;;;0.50;;
54745;SDS011;40640;48.130;11.356;2022-09-28T05:26:41;4.97;;;0.57;;
54745;SDS011;40640;48.130;11.356;2022-09-28T05:30:44;0.95;;;0.40;;
54745;SDS011;40640;48.130;11.356;2022-09-28T05:35:04;0.95;;;0.30;;
54745;SDS011;40640;48.130;11.356;2022-09-28T05:39:14;2.67;;;0.80;;
54745;SDS011;40640;48.130;11.356;2022-09-28T05:43:18;1.65;;;0.45;;
54745;SDS011;40640;48.130;11.356;2022-09-28T05:47:21;2.78;;;0.47;;
54745;SDS011;40640;48.130;11.356;2022-09-28T05:51:25;3.85;;;0.68;;
54745;SDS011;40640;48.130;11.356;2022-09-28T05:55:28;0.75;;;0.55;;
54745;SDS011;40640;48.130;11.356;2022-09-28T05:59:31;0.52;;;0.40;;
54745;SDS011;40640;48.130;11.356;2022-09-28T06:03:36;1.52;;;0.57;;
54745;SDS011;40640;48.130;11.356;2022-09-28T06:07:41;0.85;;;0.68;;
54745;SDS011;40640;48.130;11.356;2022-09-28T06:11:44;2.17;;;0.90;;
54745;SDS011;40640;48.130;11.356;2022-09-28T06:16:14;1.02;;;0.57;;
54745;SDS011;40640;48.130;11.356;2022-09-28T06:20:19;1.05;;;0.70;;
54745;SDS011;40640;48.130;11.356;2022-09-28T06:24:43;1.73;;;0.60;;
54745;SDS011;40640;48.130;11.356;2022-09-28T06:28:45;0.45;;;0.40;;
54745;SDS011;40640;48.130;11.356;2022-09-28T06:32:50;1.65;;;0.75;;
54745;SDS011;40640;48.130;11.356;2022-09-28T06:36:55;1.65;;;0.68;;
54745;SDS011;40640;48.130;11.356;2022-09-28T06:41:00;1.70;;;1.02;;
54745;SDS011;40640;48.130;11.356;2022-09-28T06:45:03;0.85;;;0.77;;
54745;SDS011;40640;48.130;11.356;2022-09-28T06:49:17;0.93;;;0.70;;
54745;SDS011;40640;48.130;11.356;2022-09-28T06:53:40;1.23;;;0.88;;
54745;SDS011;40640;48.130;11.356;2022-09-28T06:57:56;1.70;;;0.60;;
54745;SDS011;40640;48.130;11.356;2022-09-28T07:02:00;0.32;;;0.32;;
54745;SDS011;40640;48.130;11.356;2022-09-28T07:06:30;0.40;;;0.40;;
54745;SDS011;40640;48.130;11.356;2022-09-28T07:10:51;6.32;;;0.47;;
54745;SDS011;40640;48.130;11.356;2022-09-28T07:15:04;0.15;;;0.15;;
54745;SDS011;40640;48.130;11.356;2022-09-28T07:19:09;1.17;;;0.45;;
54745;SDS011;40640;48.130;11.356;2022-09-28T07:23:12;1.25;;;0.50;;
54745;SDS011;40640;48.130;11.356;2022-09-28T07:27:55;0.28;;;0.22;;
54745;SDS011;40640;48.130;11.356;2022-09-28T07:32:36;1.02;;;0.40;;
54745;SDS011;40640;48.130;11.356;2022-09-28T07:37:00;1.05;;;0.43;;
54745;SDS011;40640;48.130;11.356;2022-09-28T07:41:03;2.90;;;0.47;;
54745;SDS011;40640;48.130;11.356;2022-09-28T07:45:20;0.20;;;0.20;;
54745;SDS011;40640;48.130;11.356;2022-09-28T07:49:26;5.30;;;0.52;;
54745;SDS011;40640;48.130;11.356;2022-09-28T07:53:46;3.88;;;0.50;;
54745;SDS011;40640;48.130;11.356;2022-09-28T07:58:07;0.80;;;0.52;;
54745;SDS011;40640;48.130;11.356;2022-09-28T08:02:28;1.88;;;0.60;;
54745;SDS011;40640;48.130;11.356;2022-09-28T08:06:34;1.77;;;0.45;;
54745;SDS011;40640;48.130;11.356;2022-09-28T08:10:40;0.70;;;0.55;;
54745;SDS011;40640;48.130;11.356;2022-09-28T08:14:55;0.25;;;0.20;;
54745;SDS011;40640;48.130;11.356;2022-09-28T08:19:08;0.40;;;0.30;;
54745;SDS011;40640;48.130;11.356;2022-09-28T08:23:12;0.85;;;0.35;;
54745;SDS011;40640;48.130;11.356;2022-09-28T08:27:15;0.50;;;0.30;;
54745;SDS011;40640;48.130;11.356;2022-09-28T08:31:18;0.38;;;0.22;;
54745;SDS011;40640;48.130;11.356;2022-09-28T08:35:41;0.45;;;0.30;;
54745;SDS011;40640;48.130;11.356;2022-09-28T08:40:12;0.17;;;0.13;;
54745;SDS011;40640;48.130;11.356;2022-09-28T08:44:38;1.17;;;0.50;;
54745;SDS011;40640;48.130;11.356;2022-09-28T08:49:08;9.70;;;3.42;;
54745;SDS011;40640;48.130;11.356;2022-09-28T08:53:50;11.18;;;4.90;;
54745;SDS011;40640;48.130;11.356;2022-09-28T08:58:08;1.23;;;0.75;;
54745;SDS011;40640;48.130;11.356;2022-09-28T09:02:16;3.03;;;0.52;;
54745;SDS011;40640;48.130;11.356;2022-09-28T09:06:23;4.10;;;1.40;;
54745;SDS011;40640;48.130;11.356;2022-09-28T09:10:54;5.30;;;1.92;;
54745;SDS011;40640;48.130;11.356;2022-09-28T09:15:17;9.60;;;2.80;;
54745;SDS011;40640;48.130;11.356;2022-09-28T09:19:31;4.70;;;1.80;;
54745;SDS011;40640;48.130;11.356;2022-09-28T09:23:53;3.45;;;1.08;;
54745;SDS011;40640;48.130;11.356;2022-09-28T09:32:30;1.85;;;0.80;;
54745;SDS011;40640;48.130;11.356;2022-09-28T09:36:58;1.33;;;0.52;;
54745;SDS011;40640;48.130;11.356;2022-09-28T09:41:24;1.40;;;0.60;;
54745;SDS011;40640;48.130;11.356;2022-09-28T09:45:55;2.15;;;0.70;;
54745;SDS011;40640;48.130;11.356;2022-09-28T09:50:17;1.58;;;0.50;;
54745;SDS011;40640;48.130;11.356;2022-09-28T09:54:32;2.90;;;0.50;;
54745;SDS011;40640;48.130;11.356;2022-09-28T09:58:40;0.70;;;0.50;;
54745;SDS011;40640;48.130;11.356;2022-09-28T10:02:52;0.30;;;0.30;;
54745;SDS011;40640;48.130;11.356;2022-09-28T10:07:12;0.63;;;0.60;;
54745;SDS011;40640;48.130;11.356;2022-09-28T10:11:21;1.80;;;1.10;;
54745;SDS011;40640;48.130;11.356;2022-09-28T10:15:29;2.67;;;0.63;;
54745;SDS011;40640;48.130;11.356;2022-09-28T10:19:45;1.17;;;0.80;;
54745;SDS011;40640;48.130;11.356;2022-09-28T10:24:10;4.70;;;3.10;;
54745;SDS011;40640;48.130;11.356;2022-09-28T10:28:20;1.58;;;0.95;;
54745;SDS011;40640;48.130;11.356;2022-09-28T10:32:35;7.75;;;4.38;;
54745;SDS011;40640;48.130;11.356;2022-09-28T10:36:45;1.92;;;1.08;;
54745;SDS011;40640;48.130;11.356;2022-09-28T10:40:53;8.60;;;4.88;;
54745;SDS011;40640;48.130;11.356;2022-09-28T10:45:14;11.10;;;6.90;;
54745;SDS011;40640;48.130;11.356;2022-09-28T10:49:21;3.30;;;1.85;;
54745;SDS011;40640;48.130;11.356;2022-09-28T10:53:30;6.35;;;4.85;;
54745;SDS011;40640;48.130;11.356;2022-09-28T10:57:37;2.15;;;1.10;;
54745;SDS011;40640;48.130;11.356;2022-09-28T11:05:53;2.15;;;0.80;;
54745;SDS011;40640;48.130;11.356;2022-09-28T11:09:59;5.40;;;1.80;;
54745;SDS011;40640;48.130;11.356;2022-09-28T11:14:16;1.75;;;1.20;;
54745;SDS011;40640;48.130;11.356;2022-09-28T11:18:30;2.72;;;1.50;;
54745;SDS011;40640;48.130;11.356;2022-09-28T11:22:38;4.43;;;3.10;;
54745;SDS011;40640;48.130;11.356;2022-09-28T11:26:46;1.70;;;1.20;;
54745;SDS011;40640;48.130;11.356;2022-09-28T11:30:56;4.18;;;2.15;;
54745;SDS011;40640;48.130;11.356;2022-09-28T11:35:18;1.80;;;0.90;;
54745;SDS011;40640;48.130;11.356;2022-09-28T11:39:26;0.57;;;0.55;;
54745;SDS011;40640;48.130;11.356;2022-09-28T11:43:45;3.08;;;1.35;;
54745;SDS011;40640;48.130;11.356;2022-09-28T11:48:00;5.40;;;0.70;;
54745;SDS011;40640;48.130;11.356;2022-09-28T11:52:09;2.00;;;0.80;;
54745;SDS011;40640;48.130;11.356;2022-09-28T11:56:20;1.75;;;0.47;;
54745;SDS011;40640;48.130;11.356;2022-09-28T12:00:33;7.28;;;4.22;;
54745;SDS011;40640;48.130;11.356;2022-09-28T12:04:43;3.70;;;2.25;;
54745;SDS011;40640;48.130;11.356;2022-09-28T12:08:53;2.53;;;2.05;;
54745;SDS011;40640;48.130;11.356;2022-09-28T12:13:18;1.65;;;0.60;;
54745;SDS011;40640;48.130;11.356;2022-09-28T12:17:27;1.42;;;0.88;;
54745;SDS011;40640;48.130;11.356;2022-09-28T12:21:37;2.13;;;0.88;;
54745;SDS011;40640;48.130;11.356;2022-09-28T12:25:45;1.63;;;1.33;;
54745;SDS011;40640;48.130;11.356;2022-09-28T12:29:54;1.17;;;0.82;;
54745;SDS011;40640;48.130;11.356;2022-09-28T12:34:03;0.73;;;0.73;;
54745;SDS011;40640;48.130;11.356;2022-09-28T12:38:14;2.35;;;0.88;;
54745;SDS011;40640;48.130;11.356;2022-09-28T12:42:32;1.70;;;0.90;;
54745;SDS011;40640;48.130;11.356;2022-09-28T12:46:50;1.88;;;0.80;;
54745;SDS011;40640;48.130;11.356;2022-09-28T12:51:07;1.00;;;0.82;;
54745;SDS011;40640;48.130;11.356;2022-09-28T12:55:31;1.00;;;0.90;;
54745;SDS011;40640;48.130;11.356;2022-09-28T12:59:41;1.10;;;1.00;;
54745;SDS011;40640;48.130;11.356;2022-09-28T13:04:02;3.92;;;1.00;;
54745;SDS011;40640;48.130;11.356;2022-09-28T13:08:15;2.83;;;1.08;;
54745;SDS011;40640;48.130;11.356;2022-09-28T13:12:29;6.63;;;1.77;;
54745;SDS011;40640;48.130;11.356;2022-09-28T13:16:44;2.50;;;1.30;;
54745;SDS011;40640;48.130;11.356;2022-09-28T13:21:05;2.50;;;1.23;;
54745;SDS011;40640;48.130;11.356;2022-09-28T13:25:15;3.30;;;1.10;;
54745;SDS011;40640;48.130;11.356;2022-09-28T13:33:31;2.20;;;1.10;;
54745;SDS011;40640;48.130;11.356;2022-09-28T13:37:37;2.53;;;1.30;;
54745;SDS011;40640;48.130;11.356;2022-09-28T13:41:43;4.82;;;1.38;;
54745;SDS011;40640;48.130;11.356;2022-09-28T13:45:52;1.90;;;1.13;;
54745;SDS011;40640;48.130;11.356;2022-09-28T13:50:02;2.17;;;1.25;;
54745;SDS011;40640;48.130;11.356;2022-09-28T13:54:17;1.88;;;1.20;;
54745;SDS011;40640;48.130;11.356;2022-09-28T13:58:31;2.53;;;1.10;;
54745;SDS011;40640;48.130;11.356;2022-09-28T14:02:42;1.63;;;1.00;;
54745;SDS011;40640;48.130;11.356;2022-09-28T14:06:48;4.18;;;1.15;;
54745;SDS011;40640;48.130;11.356;2022-09-28T14:10:56;2.00;;;1.10;;
54745;SDS011;40640;48.130;11.356;2022-09-28T14:15:37;3.50;;;1.05;;
54745;SDS011;40640;48.130;11.356;2022-09-28T14:19:50;3.28;;;1.40;;
54745;SDS011;40640;48.130;11.356;2022-09-28T14:24:02;1.60;;;0.80;;
54745;SDS011;40640;48.130;11.356;2022-09-28T14:28:29;3.33;;;1.15;;
54745;SDS011;40640;48.130;11.356;2022-09-28T14:32:45;2.10;;;1.13;;
54745;SDS011;40640;48.130;11.356;2022-09-28T14:36:55;2.47;;;1.25;;
54745;SDS011;40640;48.130;11.356;2022-09-28T14:41:27;1.98;;;1.10;;
54745;SDS011;40640;48.130;11.356;2022-09-28T14:45:35;2.83;;;1.20;;
54745;SDS011;40640;48.130;11.356;2022-09-28T14:49:42;3.50;;;1.23;;
54745;SDS011;40640;48.130;11.356;2022-09-28T14:53:53;2.38;;;1.35;;
54745;SDS011;40640;48.130;11.356;2022-09-28T14:58:00;2.85;;;1.10;;
54745;SDS011;40640;48.130;11.356;2022-09-28T15:02:06;6.15;;;2.35;;
54745;SDS011;40640;48.130;11.356;2022-09-28T15:06:15;6.30;;;2.33;;
54745;SDS011;40640;48.130;11.356;2022-09-28T15:10:22;3.30;;;2.13;;
54745;SDS011;40640;48.130;11.356;2022-09-28T15:14:28;4.43;;;1.92;;
54745;SDS011;40640;48.130;11.356;2022-09-28T15:18:43;2.13;;;1.70;;
54745;SDS011;40640;48.130;11.356;2022-09-28T15:23:23;8.02;;;4.10;;
54745;SDS011;40640;48.130;11.356;2022-09-28T15:27:34;5.63;;;3.28;;
54745;SDS011;40640;48.130;11.356;2022-09-28T15:31:38;6.15;;;2.72;;
54745;SDS011;40640;48.130;11.356;2022-09-28T15:35:40;4.68;;;2.67;;
54745;SDS011;40640;48.130;11.356;2022-09-28T15:39:43;5.40;;;2.75;;
54745;SDS011;40640;48.130;11.356;2022-09-28T15:44:02;8.52;;;3.75;;
54745;SDS011;40640;48.130;11.356;2022-09-28T15:52:33;10.68;;;3.38;;
54745;SDS011;40640;48.130;11.356;2022-09-28T15:56:48;4.40;;;2.50;;
54745;SDS011;40640;48.130;11.356;2022-09-28T16:05:33;3.65;;;2.70;;
54745;SDS011;40640;48.130;11.356;2022-09-28T16:09:51;3.42;;;2.17;;
54745;SDS011;40640;48.130;11.356;2022-09-28T16:13:56;6.60;;;2.92;;
54745;SDS011;40640;48.130;11.356;2022-09-28T16:18:15;6.30;;;2.85;;
54745;SDS011;40640;48.130;11.356;2022-09-28T16:22:20;6.13;;;2.78;;
54745;SDS011;40640;48.130;11.356;2022-09-28T16:26:29;6.05;;;2.50;;
54745;SDS011;40640;48.130;11.356;2022-09-28T16:30:34;5.68;;;2.90;;
54745;SDS011;40640;48.130;11.356;2022-09-28T16:34:38;6.20;;;2.63;;
54745;SDS011;40640;48.130;11.356;2022-09-28T16:38:42;6.22;;;2.35;;
54745;SDS011;40640;48.130;11.356;2022-09-28T16:42:45;13.98;;;4.40;;
54745;SDS011;40640;48.130;11.356;2022-09-28T16:46:49;9.20;;;4.70;;
54745;SDS011;40640;48.130;11.356;2022-09-28T16:50:56;7.53;;;3.05;;
54745;SDS011;40640;48.130;11.356;2022-09-28T16:55:00;9.00;;;1.88;;
54745;SDS011;40640;48.130;11.356;2022-09-28T16:59:37;4.78;;;2.70;;
54745;SDS011;40640;48.130;11.356;2022-09-28T17:03:40;8.75;;;4.43;;
54745;SDS011;40640;48.130;11.356;2022-09-28T17:07:48;9.38;;;3.60;;
54745;SDS011;40640;48.130;11.356;2022-09-28T17:12:00;5.30;;;2.05;;
54745;SDS011;40640;48.130;11.356;2022-09-28T17:16:04;3.35;;;1.80;;
54745;SDS011;40640;48.130;11.356;2022-09-28T17:20:15;5.10;;;2.65;;
54745;SDS011;40640;48.130;11.356;2022-09-28T17:24:23;12.13;;;4.72;;
54745;SDS011;40640;48.130;11.356;2022-09-28T17:28:27;10.10;;;4.90;;
54745;SDS011;40640;48.130;11.356;2022-09-28T17:32:32;13.57;;;6.28;;
54745;SDS011;40640;48.130;11.356;2022-09-28T17:36:35;9.90;;;4.57;;
54745;SDS011;40640;48.130;11.356;2022-09-28T17:40:40;8.52;;;4.43;;
54745;SDS011;40640;48.130;11.356;2022-09-28T17:44:44;7.90;;;4.35;;
54745;SDS011;40640;48.130;11.356;2022-09-28T17:48:46;7.88;;;3.78;;
54745;SDS011;40640;48.130;11.356;2022-09-28T17:52:50;14.15;;;6.28;;
54745;SDS011;40640;48.130;11.356;2022-09-28T17:56:55;10.13;;;4.40;;
54745;SDS011;40640;48.130;11.356;2022-09-28T18:00:58;9.25;;;4.47;;
54745;SDS011;40640;48.130;11.356;2022-09-28T18:05:01;9.57;;;4.50;;
54745;SDS011;40640;48.130;11.356;2022-09-28T18:09:03;4.90;;;2.92;;
54745;SDS011;40640;48.130;11.356;2022-09-28T18:13:08;4.90;;;2.60;;
54745;SDS011;40640;48.130;11.356;2022-09-28T18:17:11;3.83;;;2.72;;
54745;SDS011;40640;48.130;11.356;2022-09-28T18:21:14;7.63;;;3.42;;
54745;SDS011;40640;48.130;11.356;2022-09-28T18:25:16;6.88;;;3.20;;
54745;SDS011;40640;48.130;11.356;2022-09-28T18:29:21;5.32;;;3.30;;
54745;SDS011;40640;48.130;11.356;2022-09-28T18:33:23;5.80;;;3.42;;
54745;SDS011;40640;48.130;11.356;2022-09-28T18:37:26;6.15;;;4.00;;
54745;SDS011;40640;48.130;11.356;2022-09-28T18:41:29;9.40;;;4.43;;
54745;SDS011;40640;48.130;11.356;2022-09-28T18:45:34;5.28;;;4.03;;
54745;SDS011;40640;48.130;11.356;2022-09-28T18:49:36;5.28;;;3.30;;
54745;SDS011;40640;48.130;11.356;2022-09-28T18:53:45;3.90;;;2.08;;
54745;SDS011;40640;48.130;11.356;2022-09-28T18:57:48;3.22;;;2.20;;
54745;SDS011;40640;48.130;11.356;2022-09-28T19:01:52;5.40;;;1.92;;
54745;SDS011;40640;48.130;11.356;2022-09-28T19:05:55;4.10;;;1.95;;
54745;SDS011;40640;48.130;11.356;2022-09-28T19:09:58;2.55;;;1.50;;
54745;SDS011;40640;48.130;11.356;2022-09-28T19:14:01;2.80;;;1.60;;
54745;SDS011;40640;48.130;11.356;2022-09-28T19:18:06;4.38;;;1.80;;
54745;SDS011;40640;48.130;11.356;2022-09-28T19:22:08;4.28;;;1.60;;
54745;SDS011;40640;48.130;11.356;2022-09-28T19:26:11;3.20;;;1.83;;
54745;SDS011;40640;48.130;11.356;2022-09-28T19:30:15;5.50;;;2.30;;
54745;SDS011;40640;48.130;11.356;2022-09-28T19:34:19;4.53;;;2.20;;
54745;SDS011;40640;48.130;11.356;2022-09-28T19:38:26;3.63;;;1.45;;
54745;SDS011;40640;48.130;11.356;2022-09-28T19:42:29;1.90;;;1.52;;
54745;SDS011;40640;48.130;11.356;2022-09-28T19:46:32;1.90;;;1.25;;
54745;SDS011;40640;48.130;11.356;2022-09-28T19:50:36;4.50;;;1.88;;
54745;SDS011;40640;48.130;11.356;2022-09-28T19:54:40;2.30;;;1.40;;
54745;SDS011;40640;48.130;11.356;2022-09-28T19:58:44;3.28;;;1.75;;
54745;SDS011;40640;48.130;11.356;2022-09-28T20:02:47;4.25;;;1.83;;
54745;SDS011;40640;48.130;11.356;2022-09-28T20:06:51;1.67;;;1.38;;
54745;SDS011;40640;48.130;11.356;2022-09-28T20:10:54;4.00;;;1.60;;
54745;SDS011;40640;48.130;11.356;2022-09-28T20:14:59;3.93;;;1.47;;
54745;SDS011;40640;48.130;11.356;2022-09-28T20:19:02;2.28;;;1.83;;
54745;SDS011;40640;48.130;11.356;2022-09-28T20:23:10;1.85;;;1.60;;
54745;SDS011;40640;48.130;11.356;2022-09-28T20:27:13;2.47;;;1.48;;
54745;SDS011;40640;48.130;11.356;2022-09-28T20:31:16;4.53;;;2.03;;
54745;SDS011;40640;48.130;11.356;2022-09-28T20:35:20;1.95;;;1.48;;
54745;SDS011;40640;48.130;11.356;2022-09-28T20:39:34;2.42;;;1.73;;
54745;SDS011;40640;48.130;11.356;2022-09-28T20:43:43;2.67;;;1.20;;
54745;SDS011;40640;48.130;11.356;2022-09-28T20:47:46;5.43;;;1.70;;
54745;SDS011;40640;48.130;11.356;2022-09-28T20:51:49;2.42;;;1.27;;
54745;SDS011;40640;48.130;11.356;2022-09-28T20:56:00;1.63;;;1.30;;
54745;SDS011;40640;48.130;11.356;2022-09-28T21:00:05;1.80;;;1.38;;
54745;SDS011;40640;48.130;11.356;2022-09-28T21:04:10;2.60;;;1.90;;
54745;SDS011;40640;48.130;11.356;2022-09-28T21:08:13;3.38;;;2.00;;
54745;SDS011;40640;48.130;11.356;2022-09-28T21:12:17;3.03;;;2.03;;
54745;SDS011;40640;48.130;11.356;2022-09-28T21:16:20;3.90;;;1.90;;
54745;SDS011;40640;48.130;11.356;2022-09-28T21:20:22;1.50;;;1.40;;
54745;SDS011;40640;48.130;11.356;2022-09-28T21:24:25;4.15;;;2.28;;
54745;SDS011;40640;48.130;11.356;2022-09-28T21:28:29;6.07;;;2.08;;
54745;SDS011;40640;48.130;11.356;2022-09-28T21:32:32;7.63;;;2.08;;
54745;SDS011;40640;48.130;11.356;2022-09-28T21:36:35;2.38;;;1.58;;
54745;SDS011;40640;48.130;11.356;2022-09-28T21:40:38;4.10;;;1.67;;
54745;SDS011;40640;48.130;11.356;2022-09-28T21:44:43;1.63;;;1.52;;
54745;SDS011;40640;48.130;11.356;2022-09-28T21:48:49;2.05;;;1.67;;
54745;SDS011;40640;48.130;11.356;2022-09-28T21:52:53;2.33;;;1.50;;
54745;SDS011;40640;48.130;11.356;2022-09-28T21:56:56;2.22;;;1.60;;
54745;SDS011;40640;48.130;11.356;2022-09-28T22:01:03;3.08;;;1.83;;
54745;SDS011;40640;48.130;11.356;2022-09-28T22:05:08;2.55;;;1.48;;
54745;SDS011;40640;48.130;11.356;2022-09-28T22:09:12;2.10;;;1.77;;
54745;SDS011;40640;48.130;11.356;2022-09-28T22:13:15;2.00;;;1.65;;
54745;SDS011;40640;48.130;11.356;2022-09-28T22:17:19;3.65;;;2.15;;
54745;SDS011;40640;48.130;11.356;2022-09-28T22:21:22;2.40;;;1.67;;
54745;SDS011;40640;48.130;11.356;2022-09-28T22:25:27;3.53;;;2.00;;
54745;SDS011;40640;48.130;11.356;2022-09-28T22:29:29;1.95;;;1.55;;
54745;SDS011;40640;48.130;11.356;2022-09-28T22:33:33;6.28;;;2.25;;
54745;SDS011;40640;48.130;11.356;2022-09-28T22:37:36;1.88;;;1.67;;
54745;SDS011;40640;48.130;11.356;2022-09-28T22:41:39;4.43;;;1.98;;
54745;SDS011;40640;48.130;11.356;2022-09-28T22:45:41;2.33;;;1.90;;
54745;SDS011;40640;48.130;11.356;2022-09-28T22:49:46;2.85;;;1.77;;
54745;SDS011;40640;48.130;11.356;2022-09-28T22:53:48;2.35;;;1.58;;
54745;SDS011;40640;48.130;11.356;2022-09-28T22:57:51;1.60;;;1.50;;
54745;SDS011;40640;48.130;11.356;2022-09-28T23:01:54;2.75;;;1.50;;
54745;SDS011;40640;48.130;11.356;2022-09-28T23:05:58;3.58;;;1.58;;
54745;SDS011;40640;48.130;11.356;2022-09-28T23:10:00;2.13;;;1.20;;
54745;SDS011;40640;48.130;11.356;2022-09-28T23:14:03;3.08;;;2.00;;
54745;SDS011;40640;48.130;11.356;2022-09-28T23:18:06;4.03;;;1.88;;
54745;SDS011;40640;48.130;11.356;2022-09-28T23:22:11;2.35;;;1.65;;
54745;SDS011;40640;48.130;11.356;2022-09-28T23:26:14;3.85;;;1.70;;
54745;SDS011;40640;48.130;11.356;2022-09-28T23:30:18;4.88;;;2.20;;
54745;SDS011;40640;48.130;11.356;2022-09-28T23:34:21;1.90;;;1.20;;
54745;SDS011;40640;48.130;11.356;2022-09-28T23:38:25;3.42;;;1.90;;
54745;SDS011;40640;48.130;11.356;2022-09-28T23:42:28;7.10;;;3.45;;
54745;SDS011;40640;48.130;11.356;2022-09-28T23:46:31;5.75;;;1.98;;
54745;SDS011;40640;48.130;11.356;2022-09-28T23:50:33;3.30;;;2.30;;
54745;SDS011;40640;48.130;11.356;2022-09-28T23:54:37;3.17;;;2.05;;
54745;SDS011;40640;48.130;11.356;2022-09-28T23:58:40;2.13;;;1.60;;
